sensor_id;sensor_type;location;lat;lon;timestamp;P1;durP1;ratioP1;P2;durP2;ratioP2
16393;SDS011;8306;51.128;4.476;2023-04-24T00:01:13;12.90;;;11.57;;
16393;SDS011;8306;51.128;4.476;2023-04-24T00:03:40;14.17;;;12.20;;
16393;SDS011;8306;51.128;4.476;2023-04-24T00:06:06;14.73;;;13.33;;
16393;SDS011;8306;51.128;4.476;2023-04-24T00:08:33;16.37;;;12.63;;
16393;SDS011;8306;51.128;4.476;2023-04-24T00:10:59;17.17;;;14.47;;
16393;SDS011;8306;51.128;4.476;2023-04-24T00:13:26;17.33;;;15.00;;
16393;SDS011;8306;51.128;4.476;2023-04-24T00:15:52;20.47;;;15.23;;
16393;SDS011;8306;51.128;4.476;2023-04-24T00:18:19;16.97;;;15.30;;
16393;SDS011;8306;51.128;4.476;2023-04-24T00:20:45;19.23;;;15.30;;
16393;SDS011;8306;51.128;4.476;2023-04-24T00:23:12;17.57;;;15.93;;
16393;SDS011;8306;51.128;4.476;2023-04-24T00:25:38;16.27;;;14.10;;
16393;SDS011;8306;51.128;4.476;2023-04-24T00:28:04;14.90;;;13.70;;
16393;SDS011;8306;51.128;4.476;2023-04-24T00:30:31;14.40;;;13.00;;
16393;SDS011;8306;51.128;4.476;2023-04-24T00:32:57;14.93;;;13.53;;
16393;SDS011;8306;51.128;4.476;2023-04-24T00:35:24;14.33;;;12.70;;
16393;SDS011;8306;51.128;4.476;2023-04-24T00:37:50;14.63;;;13.17;;
16393;SDS011;8306;51.128;4.476;2023-04-24T00:40:17;14.43;;;13.17;;
16393;SDS011;8306;51.128;4.476;2023-04-24T00:42:43;14.30;;;13.10;;
16393;SDS011;8306;51.128;4.476;2023-04-24T00:45:10;14.23;;;12.73;;
16393;SDS011;8306;51.128;4.476;2023-04-24T00:47:36;14.57;;;13.30;;
16393;SDS011;8306;51.128;4.476;2023-04-24T00:50:03;15.77;;;14.37;;
16393;SDS011;8306;51.128;4.476;2023-04-24T00:52:29;13.73;;;12.63;;
16393;SDS011;8306;51.128;4.476;2023-04-24T00:54:56;15.20;;;14.10;;
16393;SDS011;8306;51.128;4.476;2023-04-24T00:57:22;15.70;;;14.27;;
16393;SDS011;8306;51.128;4.476;2023-04-24T00:59:49;15.17;;;13.97;;
16393;SDS011;8306;51.128;4.476;2023-04-24T01:02:15;15.03;;;13.83;;
16393;SDS011;8306;51.128;4.476;2023-04-24T01:04:42;15.30;;;13.80;;
16393;SDS011;8306;51.128;4.476;2023-04-24T01:07:08;14.70;;;13.43;;
16393;SDS011;8306;51.128;4.476;2023-04-24T01:09:35;14.70;;;13.27;;
16393;SDS011;8306;51.128;4.476;2023-04-24T01:12:01;14.20;;;12.97;;
16393;SDS011;8306;51.128;4.476;2023-04-24T01:14:28;13.53;;;12.50;;
16393;SDS011;8306;51.128;4.476;2023-04-24T01:16:54;12.80;;;11.80;;
16393;SDS011;8306;51.128;4.476;2023-04-24T01:19:21;13.23;;;12.03;;
16393;SDS011;8306;51.128;4.476;2023-04-24T01:21:47;13.10;;;11.93;;
16393;SDS011;8306;51.128;4.476;2023-04-24T01:24:14;13.10;;;11.93;;
16393;SDS011;8306;51.128;4.476;2023-04-24T01:26:40;12.60;;;11.30;;
16393;SDS011;8306;51.128;4.476;2023-04-24T01:29:07;11.23;;;10.23;;
16393;SDS011;8306;51.128;4.476;2023-04-24T01:31:33;12.57;;;11.27;;
16393;SDS011;8306;51.128;4.476;2023-04-24T01:34:00;11.53;;;10.63;;
16393;SDS011;8306;51.128;4.476;2023-04-24T01:36:26;11.90;;;10.90;;
16393;SDS011;8306;51.128;4.476;2023-04-24T01:38:52;12.23;;;11.23;;
16393;SDS011;8306;51.128;4.476;2023-04-24T01:41:19;12.70;;;11.33;;
16393;SDS011;8306;51.128;4.476;2023-04-24T01:43:45;12.07;;;10.90;;
16393;SDS011;8306;51.128;4.476;2023-04-24T01:46:12;12.17;;;11.07;;
16393;SDS011;8306;51.128;4.476;2023-04-24T01:48:38;11.97;;;11.00;;
16393;SDS011;8306;51.128;4.476;2023-04-24T01:51:05;12.10;;;11.00;;
16393;SDS011;8306;51.128;4.476;2023-04-24T01:53:31;11.90;;;10.83;;
16393;SDS011;8306;51.128;4.476;2023-04-24T01:55:58;11.90;;;10.70;;
16393;SDS011;8306;51.128;4.476;2023-04-24T01:58:24;11.07;;;9.97;;
16393;SDS011;8306;51.128;4.476;2023-04-24T02:00:51;11.00;;;10.17;;
16393;SDS011;8306;51.128;4.476;2023-04-24T02:03:17;11.47;;;10.50;;
16393;SDS011;8306;51.128;4.476;2023-04-24T02:05:44;10.93;;;9.90;;
16393;SDS011;8306;51.128;4.476;2023-04-24T02:08:10;11.50;;;10.50;;
16393;SDS011;8306;51.128;4.476;2023-04-24T02:10:37;10.53;;;9.57;;
16393;SDS011;8306;51.128;4.476;2023-04-24T02:13:03;11.30;;;10.37;;
16393;SDS011;8306;51.128;4.476;2023-04-24T02:15:30;10.53;;;9.63;;
16393;SDS011;8306;51.128;4.476;2023-04-24T02:17:56;11.30;;;10.40;;
16393;SDS011;8306;51.128;4.476;2023-04-24T02:20:23;11.27;;;10.30;;
16393;SDS011;8306;51.128;4.476;2023-04-24T02:22:49;10.70;;;9.90;;
16393;SDS011;8306;51.128;4.476;2023-04-24T02:25:16;10.13;;;9.43;;
16393;SDS011;8306;51.128;4.476;2023-04-24T02:27:42;9.00;;;8.40;;
16393;SDS011;8306;51.128;4.476;2023-04-24T02:30:09;8.97;;;8.33;;
16393;SDS011;8306;51.128;4.476;2023-04-24T02:32:35;8.90;;;8.30;;
16393;SDS011;8306;51.128;4.476;2023-04-24T02:35:02;9.60;;;8.63;;
16393;SDS011;8306;51.128;4.476;2023-04-24T02:37:28;9.30;;;8.70;;
16393;SDS011;8306;51.128;4.476;2023-04-24T02:39:54;8.57;;;8.07;;
16393;SDS011;8306;51.128;4.476;2023-04-24T02:42:21;9.33;;;8.73;;
16393;SDS011;8306;51.128;4.476;2023-04-24T02:44:47;9.40;;;8.77;;
16393;SDS011;8306;51.128;4.476;2023-04-24T02:47:14;9.87;;;9.27;;
16393;SDS011;8306;51.128;4.476;2023-04-24T02:49:40;8.67;;;8.07;;
16393;SDS011;8306;51.128;4.476;2023-04-24T02:52:07;9.50;;;8.80;;
16393;SDS011;8306;51.128;4.476;2023-04-24T02:54:33;10.43;;;9.53;;
16393;SDS011;8306;51.128;4.476;2023-04-24T02:57:00;10.70;;;9.97;;
16393;SDS011;8306;51.128;4.476;2023-04-24T02:59:26;10.37;;;9.67;;
16393;SDS011;8306;51.128;4.476;2023-04-24T03:01:53;10.63;;;9.93;;
16393;SDS011;8306;51.128;4.476;2023-04-24T03:04:19;11.37;;;10.57;;
16393;SDS011;8306;51.128;4.476;2023-04-24T03:06:46;13.17;;;12.00;;
16393;SDS011;8306;51.128;4.476;2023-04-24T03:09:12;11.80;;;10.80;;
16393;SDS011;8306;51.128;4.476;2023-04-24T03:11:39;11.63;;;10.83;;
16393;SDS011;8306;51.128;4.476;2023-04-24T03:14:05;13.33;;;12.33;;
16393;SDS011;8306;51.128;4.476;2023-04-24T03:16:32;12.67;;;11.67;;
16393;SDS011;8306;51.128;4.476;2023-04-24T03:18:58;12.70;;;11.80;;
16393;SDS011;8306;51.128;4.476;2023-04-24T03:21:25;13.23;;;12.07;;
16393;SDS011;8306;51.128;4.476;2023-04-24T03:23:51;11.80;;;11.00;;
16393;SDS011;8306;51.128;4.476;2023-04-24T03:26:18;13.70;;;12.70;;
16393;SDS011;8306;51.128;4.476;2023-04-24T03:28:44;14.37;;;12.93;;
16393;SDS011;8306;51.128;4.476;2023-04-24T03:31:11;11.70;;;10.90;;
16393;SDS011;8306;51.128;4.476;2023-04-24T03:33:37;12.33;;;11.23;;
16393;SDS011;8306;51.128;4.476;2023-04-24T03:36:04;13.47;;;12.47;;
16393;SDS011;8306;51.128;4.476;2023-04-24T03:38:30;12.60;;;11.50;;
16393;SDS011;8306;51.128;4.476;2023-04-24T03:40:56;13.70;;;12.80;;
16393;SDS011;8306;51.128;4.476;2023-04-24T03:43:23;10.90;;;10.20;;
16393;SDS011;8306;51.128;4.476;2023-04-24T03:45:49;10.40;;;9.70;;
16393;SDS011;8306;51.128;4.476;2023-04-24T03:48:16;9.17;;;8.50;;
16393;SDS011;8306;51.128;4.476;2023-04-24T03:50:42;9.13;;;8.43;;
16393;SDS011;8306;51.128;4.476;2023-04-24T03:53:09;9.43;;;8.73;;
16393;SDS011;8306;51.128;4.476;2023-04-24T03:55:35;9.93;;;9.23;;
16393;SDS011;8306;51.128;4.476;2023-04-24T03:58:02;8.57;;;7.93;;
16393;SDS011;8306;51.128;4.476;2023-04-24T04:00:28;8.90;;;8.20;;
16393;SDS011;8306;51.128;4.476;2023-04-24T04:02:55;8.57;;;7.87;;
16393;SDS011;8306;51.128;4.476;2023-04-24T04:05:21;6.53;;;6.03;;
16393;SDS011;8306;51.128;4.476;2023-04-24T04:07:48;8.13;;;7.33;;
16393;SDS011;8306;51.128;4.476;2023-04-24T04:10:14;7.67;;;6.90;;
16393;SDS011;8306;51.128;4.476;2023-04-24T04:12:41;5.70;;;5.07;;
16393;SDS011;8306;51.128;4.476;2023-04-24T04:15:07;6.40;;;5.80;;
16393;SDS011;8306;51.128;4.476;2023-04-24T04:17:34;5.80;;;5.30;;
16393;SDS011;8306;51.128;4.476;2023-04-24T04:20:00;5.30;;;4.80;;
16393;SDS011;8306;51.128;4.476;2023-04-24T04:22:27;5.53;;;4.07;;
16393;SDS011;8306;51.128;4.476;2023-04-24T04:24:53;5.13;;;4.63;;
16393;SDS011;8306;51.128;4.476;2023-04-24T04:27:20;5.00;;;4.50;;
16393;SDS011;8306;51.128;4.476;2023-04-24T04:29:46;5.13;;;4.60;;
16393;SDS011;8306;51.128;4.476;2023-04-24T04:32:13;5.33;;;4.90;;
16393;SDS011;8306;51.128;4.476;2023-04-24T04:34:39;6.73;;;5.70;;
16393;SDS011;8306;51.128;4.476;2023-04-24T04:37:06;6.00;;;5.50;;
16393;SDS011;8306;51.128;4.476;2023-04-24T04:39:32;6.17;;;5.57;;
16393;SDS011;8306;51.128;4.476;2023-04-24T04:41:59;5.83;;;5.33;;
16393;SDS011;8306;51.128;4.476;2023-04-24T04:44:25;6.97;;;6.37;;
16393;SDS011;8306;51.128;4.476;2023-04-24T04:46:52;8.30;;;7.47;;
16393;SDS011;8306;51.128;4.476;2023-04-24T04:49:18;9.57;;;8.67;;
16393;SDS011;8306;51.128;4.476;2023-04-24T04:51:45;10.03;;;9.13;;
16393;SDS011;8306;51.128;4.476;2023-04-24T04:54:11;13.57;;;11.43;;
16393;SDS011;8306;51.128;4.476;2023-04-24T04:56:37;17.83;;;13.03;;
16393;SDS011;8306;51.128;4.476;2023-04-24T04:59:04;13.37;;;12.07;;
16393;SDS011;8306;51.128;4.476;2023-04-24T05:01:30;13.43;;;12.33;;
16393;SDS011;8306;51.128;4.476;2023-04-24T05:03:57;14.13;;;12.87;;
16393;SDS011;8306;51.128;4.476;2023-04-24T05:06:23;13.70;;;12.50;;
16393;SDS011;8306;51.128;4.476;2023-04-24T05:08:50;14.17;;;12.97;;
16393;SDS011;8306;51.128;4.476;2023-04-24T05:11:16;15.13;;;12.17;;
16393;SDS011;8306;51.128;4.476;2023-04-24T05:13:43;13.60;;;12.30;;
16393;SDS011;8306;51.128;4.476;2023-04-24T05:16:09;13.80;;;12.50;;
16393;SDS011;8306;51.128;4.476;2023-04-24T05:18:36;14.60;;;12.07;;
16393;SDS011;8306;51.128;4.476;2023-04-24T05:21:02;16.30;;;12.67;;
16393;SDS011;8306;51.128;4.476;2023-04-24T05:23:29;14.53;;;12.90;;
16393;SDS011;8306;51.128;4.476;2023-04-24T05:25:55;12.70;;;11.37;;
16393;SDS011;8306;51.128;4.476;2023-04-24T05:28:22;11.07;;;10.17;;
16393;SDS011;8306;51.128;4.476;2023-04-24T05:30:48;13.27;;;10.47;;
16393;SDS011;8306;51.128;4.476;2023-04-24T05:33:15;10.87;;;9.77;;
16393;SDS011;8306;51.128;4.476;2023-04-24T05:35:41;10.03;;;9.13;;
16393;SDS011;8306;51.128;4.476;2023-04-24T05:38:11;9.43;;;8.57;;
16393;SDS011;8306;51.128;4.476;2023-04-24T05:40:37;9.30;;;8.60;;
16393;SDS011;8306;51.128;4.476;2023-04-24T05:43:03;10.90;;;9.13;;
16393;SDS011;8306;51.128;4.476;2023-04-24T05:45:30;10.10;;;9.10;;
16393;SDS011;8306;51.128;4.476;2023-04-24T05:47:56;10.47;;;9.10;;
16393;SDS011;8306;51.128;4.476;2023-04-24T05:50:25;9.93;;;8.93;;
16393;SDS011;8306;51.128;4.476;2023-04-24T05:52:52;9.60;;;8.63;;
16393;SDS011;8306;51.128;4.476;2023-04-24T05:55:18;13.30;;;10.43;;
16393;SDS011;8306;51.128;4.476;2023-04-24T05:57:45;11.30;;;10.40;;
16393;SDS011;8306;51.128;4.476;2023-04-24T06:00:11;10.87;;;9.97;;
16393;SDS011;8306;51.128;4.476;2023-04-24T06:02:38;13.57;;;11.10;;
16393;SDS011;8306;51.128;4.476;2023-04-24T06:05:04;10.50;;;9.47;;
16393;SDS011;8306;51.128;4.476;2023-04-24T06:07:31;12.53;;;11.53;;
16393;SDS011;8306;51.128;4.476;2023-04-24T06:09:57;12.53;;;11.23;;
16393;SDS011;8306;51.128;4.476;2023-04-24T06:12:24;13.23;;;12.03;;
16393;SDS011;8306;51.128;4.476;2023-04-24T06:14:50;12.10;;;10.90;;
16393;SDS011;8306;51.128;4.476;2023-04-24T06:17:17;17.47;;;12.00;;
16393;SDS011;8306;51.128;4.476;2023-04-24T06:19:43;13.50;;;12.20;;
16393;SDS011;8306;51.128;4.476;2023-04-24T06:22:10;12.73;;;11.43;;
16393;SDS011;8306;51.128;4.476;2023-04-24T06:24:36;12.50;;;11.30;;
16393;SDS011;8306;51.128;4.476;2023-04-24T06:27:03;13.37;;;12.17;;
16393;SDS011;8306;51.128;4.476;2023-04-24T06:29:29;14.00;;;12.80;;
16393;SDS011;8306;51.128;4.476;2023-04-24T06:31:55;13.47;;;12.13;;
16393;SDS011;8306;51.128;4.476;2023-04-24T06:34:22;12.60;;;11.50;;
16393;SDS011;8306;51.128;4.476;2023-04-24T06:36:48;14.70;;;12.87;;
16393;SDS011;8306;51.128;4.476;2023-04-24T06:39:15;14.73;;;13.23;;
16393;SDS011;8306;51.128;4.476;2023-04-24T06:41:41;16.77;;;15.00;;
16393;SDS011;8306;51.128;4.476;2023-04-24T06:44:08;18.13;;;16.27;;
16393;SDS011;8306;51.128;4.476;2023-04-24T06:46:34;23.57;;;17.93;;
16393;SDS011;8306;51.128;4.476;2023-04-24T06:49:01;20.43;;;18.47;;
16393;SDS011;8306;51.128;4.476;2023-04-24T06:51:27;28.03;;;19.47;;
16393;SDS011;8306;51.128;4.476;2023-04-24T06:53:54;31.80;;;20.17;;
16393;SDS011;8306;51.128;4.476;2023-04-24T06:56:20;22.90;;;19.90;;
16393;SDS011;8306;51.128;4.476;2023-04-24T06:58:47;33.77;;;21.67;;
16393;SDS011;8306;51.128;4.476;2023-04-24T07:01:13;26.00;;;18.27;;
16393;SDS011;8306;51.128;4.476;2023-04-24T07:03:40;23.80;;;18.03;;
16393;SDS011;8306;51.128;4.476;2023-04-24T07:06:06;21.70;;;15.17;;
16393;SDS011;8306;51.128;4.476;2023-04-24T07:08:33;11.57;;;10.47;;
16393;SDS011;8306;51.128;4.476;2023-04-24T07:10:59;19.83;;;11.17;;
16393;SDS011;8306;51.128;4.476;2023-04-24T07:13:26;11.77;;;8.93;;
16393;SDS011;8306;51.128;4.476;2023-04-24T07:15:53;13.60;;;9.30;;
16393;SDS011;8306;51.128;4.476;2023-04-24T07:18:19;9.60;;;8.33;;
16393;SDS011;8306;51.128;4.476;2023-04-24T07:20:45;9.53;;;7.30;;
16393;SDS011;8306;51.128;4.476;2023-04-24T07:23:12;8.70;;;7.33;;
16393;SDS011;8306;51.128;4.476;2023-04-24T07:25:38;9.93;;;7.13;;
16393;SDS011;8306;51.128;4.476;2023-04-24T07:28:05;9.00;;;6.07;;
16393;SDS011;8306;51.128;4.476;2023-04-24T07:30:31;9.03;;;6.47;;
16393;SDS011;8306;51.128;4.476;2023-04-24T07:32:58;7.60;;;6.03;;
16393;SDS011;8306;51.128;4.476;2023-04-24T07:35:24;6.80;;;5.60;;
16393;SDS011;8306;51.128;4.476;2023-04-24T07:37:54;7.07;;;5.13;;
16393;SDS011;8306;51.128;4.476;2023-04-24T07:40:17;5.47;;;4.13;;
16393;SDS011;8306;51.128;4.476;2023-04-24T07:42:43;7.07;;;4.40;;
16393;SDS011;8306;51.128;4.476;2023-04-24T07:45:10;7.77;;;3.53;;
16393;SDS011;8306;51.128;4.476;2023-04-24T07:47:36;6.73;;;4.00;;
16393;SDS011;8306;51.128;4.476;2023-04-24T07:50:03;8.63;;;4.17;;
16393;SDS011;8306;51.128;4.476;2023-04-24T07:52:29;6.97;;;4.43;;
16393;SDS011;8306;51.128;4.476;2023-04-24T07:54:56;6.27;;;3.67;;
16393;SDS011;8306;51.128;4.476;2023-04-24T07:57:22;7.43;;;3.57;;
16393;SDS011;8306;51.128;4.476;2023-04-24T07:59:49;7.87;;;3.60;;
16393;SDS011;8306;51.128;4.476;2023-04-24T08:02:15;7.77;;;3.87;;
16393;SDS011;8306;51.128;4.476;2023-04-24T08:04:43;8.50;;;3.47;;
16393;SDS011;8306;51.128;4.476;2023-04-24T08:07:08;10.03;;;3.67;;
16393;SDS011;8306;51.128;4.476;2023-04-24T08:09:35;10.10;;;3.23;;
16393;SDS011;8306;51.128;4.476;2023-04-24T08:12:01;10.20;;;3.67;;
16393;SDS011;8306;51.128;4.476;2023-04-24T08:14:28;9.40;;;4.30;;
16393;SDS011;8306;51.128;4.476;2023-04-24T08:16:54;11.00;;;4.57;;
16393;SDS011;8306;51.128;4.476;2023-04-24T08:19:23;8.77;;;4.60;;
16393;SDS011;8306;51.128;4.476;2023-04-24T08:21:50;9.27;;;5.47;;
16393;SDS011;8306;51.128;4.476;2023-04-24T08:24:16;9.00;;;4.87;;
16393;SDS011;8306;51.128;4.476;2023-04-24T08:26:43;9.13;;;4.03;;
16393;SDS011;8306;51.128;4.476;2023-04-24T08:29:09;10.90;;;4.57;;
16393;SDS011;8306;51.128;4.476;2023-04-24T08:31:35;8.53;;;4.23;;
16393;SDS011;8306;51.128;4.476;2023-04-24T08:34:02;9.27;;;3.73;;
16393;SDS011;8306;51.128;4.476;2023-04-24T08:36:28;7.30;;;4.20;;
16393;SDS011;8306;51.128;4.476;2023-04-24T08:38:55;8.77;;;3.73;;
16393;SDS011;8306;51.128;4.476;2023-04-24T08:41:21;11.47;;;4.40;;
16393;SDS011;8306;51.128;4.476;2023-04-24T08:43:48;10.23;;;3.67;;
16393;SDS011;8306;51.128;4.476;2023-04-24T08:46:15;8.50;;;3.97;;
16393;SDS011;8306;51.128;4.476;2023-04-24T08:48:41;9.70;;;3.53;;
16393;SDS011;8306;51.128;4.476;2023-04-24T08:51:07;6.90;;;3.37;;
16393;SDS011;8306;51.128;4.476;2023-04-24T08:53:34;7.53;;;3.70;;
16393;SDS011;8306;51.128;4.476;2023-04-24T08:56:00;6.07;;;3.17;;
16393;SDS011;8306;51.128;4.476;2023-04-24T08:58:27;6.47;;;3.23;;
16393;SDS011;8306;51.128;4.476;2023-04-24T09:00:56;8.90;;;3.07;;
16393;SDS011;8306;51.128;4.476;2023-04-24T09:03:23;7.33;;;3.30;;
16393;SDS011;8306;51.128;4.476;2023-04-24T09:05:49;8.50;;;3.10;;
16393;SDS011;8306;51.128;4.476;2023-04-24T09:08:18;8.37;;;3.00;;
16393;SDS011;8306;51.128;4.476;2023-04-24T09:10:45;8.53;;;3.60;;
16393;SDS011;8306;51.128;4.476;2023-04-24T09:13:11;8.37;;;3.57;;
16393;SDS011;8306;51.128;4.476;2023-04-24T09:15:38;8.10;;;3.77;;
16393;SDS011;8306;51.128;4.476;2023-04-24T09:18:04;8.00;;;3.90;;
16393;SDS011;8306;51.128;4.476;2023-04-24T09:20:31;6.07;;;3.50;;
16393;SDS011;8306;51.128;4.476;2023-04-24T09:22:57;7.73;;;4.07;;
16393;SDS011;8306;51.128;4.476;2023-04-24T09:25:33;9.17;;;3.73;;
16393;SDS011;8306;51.128;4.476;2023-04-24T09:28:02;7.97;;;3.50;;
16393;SDS011;8306;51.128;4.476;2023-04-24T09:30:28;6.37;;;3.20;;
16393;SDS011;8306;51.128;4.476;2023-04-24T09:33:13;7.43;;;3.40;;
16393;SDS011;8306;51.128;4.476;2023-04-24T09:35:49;11.37;;;4.03;;
16393;SDS011;8306;51.128;4.476;2023-04-24T09:38:14;5.77;;;3.37;;
16393;SDS011;8306;51.128;4.476;2023-04-24T09:40:41;4.87;;;3.10;;
16393;SDS011;8306;51.128;4.476;2023-04-24T09:43:10;5.70;;;3.57;;
16393;SDS011;8306;51.128;4.476;2023-04-24T09:45:40;6.97;;;3.23;;
16393;SDS011;8306;51.128;4.476;2023-04-24T09:48:09;8.00;;;3.60;;
16393;SDS011;8306;51.128;4.476;2023-04-24T09:50:36;9.27;;;3.43;;
16393;SDS011;8306;51.128;4.476;2023-04-24T09:53:03;5.57;;;3.07;;
16393;SDS011;8306;51.128;4.476;2023-04-24T09:55:29;7.47;;;2.70;;
16393;SDS011;8306;51.128;4.476;2023-04-24T09:57:59;6.10;;;2.60;;
16393;SDS011;8306;51.128;4.476;2023-04-24T10:00:22;4.23;;;2.00;;
16393;SDS011;8306;51.128;4.476;2023-04-24T10:02:55;4.60;;;2.20;;
16393;SDS011;8306;51.128;4.476;2023-04-24T10:05:24;6.13;;;1.93;;
16393;SDS011;8306;51.128;4.476;2023-04-24T10:07:50;4.53;;;2.10;;
16393;SDS011;8306;51.128;4.476;2023-04-24T10:10:16;4.27;;;2.03;;
16393;SDS011;8306;51.128;4.476;2023-04-24T10:12:43;6.60;;;2.63;;
16393;SDS011;8306;51.128;4.476;2023-04-24T10:15:10;6.63;;;2.40;;
16393;SDS011;8306;51.128;4.476;2023-04-24T10:17:36;3.93;;;2.20;;
16393;SDS011;8306;51.128;4.476;2023-04-24T10:20:03;3.73;;;1.87;;
16393;SDS011;8306;51.128;4.476;2023-04-24T10:22:30;2.47;;;1.77;;
16393;SDS011;8306;51.128;4.476;2023-04-24T10:24:56;4.53;;;1.60;;
16393;SDS011;8306;51.128;4.476;2023-04-24T10:27:22;2.67;;;1.83;;
16393;SDS011;8306;51.128;4.476;2023-04-24T10:29:49;3.00;;;2.07;;
16393;SDS011;8306;51.128;4.476;2023-04-24T10:32:15;2.43;;;1.80;;
16393;SDS011;8306;51.128;4.476;2023-04-24T10:34:42;3.50;;;1.70;;
16393;SDS011;8306;51.128;4.476;2023-04-24T10:37:08;3.03;;;1.73;;
16393;SDS011;8306;51.128;4.476;2023-04-24T10:39:35;3.27;;;1.80;;
16393;SDS011;8306;51.128;4.476;2023-04-24T10:42:01;2.47;;;1.40;;
16393;SDS011;8306;51.128;4.476;2023-04-24T10:44:35;2.97;;;1.80;;
16393;SDS011;8306;51.128;4.476;2023-04-24T10:46:55;3.63;;;1.80;;
16393;SDS011;8306;51.128;4.476;2023-04-24T10:49:30;3.37;;;1.80;;
16393;SDS011;8306;51.128;4.476;2023-04-24T10:51:59;4.60;;;1.90;;
16393;SDS011;8306;51.128;4.476;2023-04-24T10:54:23;4.03;;;2.20;;
16393;SDS011;8306;51.128;4.476;2023-04-24T10:56:53;4.40;;;1.87;;
16393;SDS011;8306;51.128;4.476;2023-04-24T10:59:23;4.87;;;2.53;;
16393;SDS011;8306;51.128;4.476;2023-04-24T11:01:42;4.53;;;2.50;;
16393;SDS011;8306;51.128;4.476;2023-04-24T11:04:08;2.97;;;1.97;;
16393;SDS011;8306;51.128;4.476;2023-04-24T11:06:36;4.40;;;2.10;;
16393;SDS011;8306;51.128;4.476;2023-04-24T11:09:08;3.90;;;2.23;;
16393;SDS011;8306;51.128;4.476;2023-04-24T11:11:34;3.20;;;1.93;;
16393;SDS011;8306;51.128;4.476;2023-04-24T11:14:01;5.23;;;2.10;;
16393;SDS011;8306;51.128;4.476;2023-04-24T11:16:30;3.60;;;2.47;;
16393;SDS011;8306;51.128;4.476;2023-04-24T11:19:06;2.87;;;1.80;;
16393;SDS011;8306;51.128;4.476;2023-04-24T11:24:26;3.67;;;2.40;;
16393;SDS011;8306;51.128;4.476;2023-04-24T11:29:21;2.83;;;2.27;;
16393;SDS011;8306;51.128;4.476;2023-04-24T11:31:47;2.77;;;1.63;;
16393;SDS011;8306;51.128;4.476;2023-04-24T11:34:14;2.83;;;1.73;;
16393;SDS011;8306;51.128;4.476;2023-04-24T11:36:42;2.20;;;1.20;;
16393;SDS011;8306;51.128;4.476;2023-04-24T11:39:06;2.53;;;1.60;;
16393;SDS011;8306;51.128;4.476;2023-04-24T11:41:33;3.03;;;1.50;;
16393;SDS011;8306;51.128;4.476;2023-04-24T11:43:59;2.73;;;1.50;;
16393;SDS011;8306;51.128;4.476;2023-04-24T11:46:27;3.27;;;1.40;;
16393;SDS011;8306;51.128;4.476;2023-04-24T11:48:52;2.13;;;1.60;;
16393;SDS011;8306;51.128;4.476;2023-04-24T11:51:19;3.37;;;1.37;;
16393;SDS011;8306;51.128;4.476;2023-04-24T11:53:45;2.57;;;1.60;;
16393;SDS011;8306;51.128;4.476;2023-04-24T11:56:12;1.87;;;1.40;;
16393;SDS011;8306;51.128;4.476;2023-04-24T11:58:38;3.10;;;1.60;;
16393;SDS011;8306;51.128;4.476;2023-04-24T12:01:05;2.80;;;1.63;;
16393;SDS011;8306;51.128;4.476;2023-04-24T12:03:31;1.93;;;1.30;;
16393;SDS011;8306;51.128;4.476;2023-04-24T12:06:04;2.77;;;1.37;;
16393;SDS011;8306;51.128;4.476;2023-04-24T12:08:30;4.30;;;1.30;;
16393;SDS011;8306;51.128;4.476;2023-04-24T12:10:57;2.77;;;1.00;;
16393;SDS011;8306;51.128;4.476;2023-04-24T12:13:25;2.53;;;1.23;;
16393;SDS011;8306;51.128;4.476;2023-04-24T12:15:50;2.53;;;1.23;;
16393;SDS011;8306;51.128;4.476;2023-04-24T12:18:16;1.90;;;1.00;;
16393;SDS011;8306;51.128;4.476;2023-04-24T12:20:43;4.43;;;1.30;;
16393;SDS011;8306;51.128;4.476;2023-04-24T12:23:09;3.27;;;1.47;;
16393;SDS011;8306;51.128;4.476;2023-04-24T12:25:36;2.03;;;1.00;;
16393;SDS011;8306;51.128;4.476;2023-04-24T12:30:32;1.30;;;1.13;;
16393;SDS011;8306;51.128;4.476;2023-04-24T12:32:58;2.33;;;1.27;;
16393;SDS011;8306;51.128;4.476;2023-04-24T12:35:25;2.23;;;1.33;;
16393;SDS011;8306;51.128;4.476;2023-04-24T12:37:51;1.80;;;1.10;;
16393;SDS011;8306;51.128;4.476;2023-04-24T12:40:18;2.27;;;1.10;;
16393;SDS011;8306;51.128;4.476;2023-04-24T12:42:45;2.23;;;1.30;;
16393;SDS011;8306;51.128;4.476;2023-04-24T12:45:10;2.40;;;1.10;;
16393;SDS011;8306;51.128;4.476;2023-04-24T12:47:37;2.93;;;1.33;;
16393;SDS011;8306;51.128;4.476;2023-04-24T12:50:04;2.37;;;1.20;;
16393;SDS011;8306;51.128;4.476;2023-04-24T12:52:30;1.73;;;1.10;;
16393;SDS011;8306;51.128;4.476;2023-04-24T12:54:58;2.47;;;1.13;;
16393;SDS011;8306;51.128;4.476;2023-04-24T12:57:23;2.57;;;1.10;;
16393;SDS011;8306;51.128;4.476;2023-04-24T12:59:49;2.33;;;1.00;;
16393;SDS011;8306;51.128;4.476;2023-04-24T13:02:16;1.80;;;0.90;;
16393;SDS011;8306;51.128;4.476;2023-04-24T13:04:45;2.53;;;1.20;;
16393;SDS011;8306;51.128;4.476;2023-04-24T13:07:12;2.93;;;1.30;;
16393;SDS011;8306;51.128;4.476;2023-04-24T13:09:38;2.73;;;1.40;;
16393;SDS011;8306;51.128;4.476;2023-04-24T13:12:04;3.37;;;1.40;;
16393;SDS011;8306;51.128;4.476;2023-04-24T13:14:31;2.37;;;1.30;;
16393;SDS011;8306;51.128;4.476;2023-04-24T13:16:57;3.27;;;1.67;;
16393;SDS011;8306;51.128;4.476;2023-04-24T13:19:24;3.47;;;1.50;;
16393;SDS011;8306;51.128;4.476;2023-04-24T13:21:50;2.80;;;1.30;;
16393;SDS011;8306;51.128;4.476;2023-04-24T13:24:17;3.37;;;1.20;;
16393;SDS011;8306;51.128;4.476;2023-04-24T13:26:43;3.27;;;1.40;;
16393;SDS011;8306;51.128;4.476;2023-04-24T13:29:10;2.03;;;1.20;;
16393;SDS011;8306;51.128;4.476;2023-04-24T13:31:36;2.53;;;1.30;;
16393;SDS011;8306;51.128;4.476;2023-04-24T13:34:03;1.57;;;1.13;;
16393;SDS011;8306;51.128;4.476;2023-04-24T13:36:29;2.73;;;1.03;;
16393;SDS011;8306;51.128;4.476;2023-04-24T13:38:56;3.07;;;1.20;;
16393;SDS011;8306;51.128;4.476;2023-04-24T13:41:22;0.93;;;0.80;;
16393;SDS011;8306;51.128;4.476;2023-04-24T13:43:49;1.60;;;0.70;;
16393;SDS011;8306;51.128;4.476;2023-04-24T13:46:15;1.90;;;1.10;;
16393;SDS011;8306;51.128;4.476;2023-04-24T13:48:42;1.93;;;1.07;;
16393;SDS011;8306;51.128;4.476;2023-04-24T13:51:08;1.93;;;1.17;;
16393;SDS011;8306;51.128;4.476;2023-04-24T13:53:34;1.83;;;1.33;;
16393;SDS011;8306;51.128;4.476;2023-04-24T13:56:01;2.00;;;1.30;;
16393;SDS011;8306;51.128;4.476;2023-04-24T13:58:27;2.63;;;1.00;;
16393;SDS011;8306;51.128;4.476;2023-04-24T14:00:54;2.20;;;1.10;;
16393;SDS011;8306;51.128;4.476;2023-04-24T14:03:20;4.40;;;1.07;;
16393;SDS011;8306;51.128;4.476;2023-04-24T14:05:47;2.70;;;1.57;;
16393;SDS011;8306;51.128;4.476;2023-04-24T14:08:13;1.77;;;1.40;;
16393;SDS011;8306;51.128;4.476;2023-04-24T14:10:40;1.83;;;1.07;;
16393;SDS011;8306;51.128;4.476;2023-04-24T14:13:06;2.07;;;1.20;;
16393;SDS011;8306;51.128;4.476;2023-04-24T14:15:33;1.47;;;0.93;;
16393;SDS011;8306;51.128;4.476;2023-04-24T14:17:59;2.43;;;1.00;;
16393;SDS011;8306;51.128;4.476;2023-04-24T14:20:26;0.93;;;0.77;;
16393;SDS011;8306;51.128;4.476;2023-04-24T14:22:52;1.43;;;0.70;;
16393;SDS011;8306;51.128;4.476;2023-04-24T14:25:19;1.00;;;0.87;;
16393;SDS011;8306;51.128;4.476;2023-04-24T14:27:45;1.50;;;0.67;;
16393;SDS011;8306;51.128;4.476;2023-04-24T14:30:12;1.73;;;0.60;;
16393;SDS011;8306;51.128;4.476;2023-04-24T14:32:38;2.30;;;0.80;;
16393;SDS011;8306;51.128;4.476;2023-04-24T14:35:05;2.60;;;0.87;;
16393;SDS011;8306;51.128;4.476;2023-04-24T14:37:31;1.67;;;0.70;;
16393;SDS011;8306;51.128;4.476;2023-04-24T14:39:58;1.53;;;0.80;;
16393;SDS011;8306;51.128;4.476;2023-04-24T14:42:24;0.80;;;0.67;;
16393;SDS011;8306;51.128;4.476;2023-04-24T14:44:51;1.57;;;0.87;;
16393;SDS011;8306;51.128;4.476;2023-04-24T14:47:17;1.97;;;0.90;;
16393;SDS011;8306;51.128;4.476;2023-04-24T14:49:44;2.00;;;0.97;;
16393;SDS011;8306;51.128;4.476;2023-04-24T14:52:10;1.40;;;0.60;;
16393;SDS011;8306;51.128;4.476;2023-04-24T14:54:37;1.47;;;0.77;;